Time;durP1;ratioP1;P1;durP2;ratioP2;P2;SDS_P1;SDS_P2;PMS_P1;PMS_P2;Temp;Humidity;BMP_temperature;BMP_pressure;BME280_temperature;BME280_humidity;BME280_pressure;Samples;Min_cycle;Max_cycle;Signal;HPM_P1;HPM_P2
2022/12/22 03:26:18;;;;;;;16.95;9.75;;;;;;;-148.88;100.00;75415.69;5015825;28;20040;-75
2022/12/22 03:28:44;;;;;;;16.58;10.52;;;;;;;-148.88;100.00;75415.69;5014340;28;20025;-74
2022/12/22 03:31:11;;;;;;;15.82;9.10;;;;;;;-148.88;100.00;75419.75;5014306;28;20403;-74
2022/12/22 03:33:36;;;;;;;16.58;9.60;;;;;;;-148.88;100.00;75415.69;5014381;28;20061;-74
2022/12/22 03:36:02;;;;;;;19.50;9.40;;;;;;;-148.88;100.00;75413.66;5015576;28;20133;-74
2022/12/22 03:38:27;;;;;;;14.82;8.80;;;;;;;-148.88;100.00;75407.56;5015429;28;20426;-74
2022/12/22 03:40:53;;;;;;;15.73;8.27;;;;;;;-148.88;100.00;75401.47;5015419;28;20026;-74
2022/12/22 03:48:41;;;;;;;13.55;7.70;;;;;;;-148.88;100.00;75397.41;5016037;28;20088;-86
2022/12/22 03:51:06;;;;;;;12.98;7.50;;;;;;;-148.88;100.00;75401.47;5015537;28;20029;-87
2022/12/22 03:53:32;;;;;;;15.13;7.95;;;;;;;-148.88;100.00;75391.31;5015856;28;20368;-86
2022/12/22 03:55:57;;;;;;;13.35;8.32;;;;;;;-148.88;100.00;75383.19;5014515;28;20041;-86
2022/12/22 03:58:22;;;;;;;13.30;7.25;;;;;;;-148.88;100.00;75375.06;5014850;28;20451;-86
2022/12/22 04:00:48;;;;;;;13.73;6.68;;;;;;;-148.88;100.00;75373.03;5014607;28;20026;-85
2022/12/22 04:03:13;;;;;;;12.70;7.18;;;;;;;-148.88;100.00;75366.94;5016317;28;20018;-86
2022/12/22 04:05:39;;;;;;;11.88;6.82;;;;;;;-148.88;100.00;75368.97;5016111;28;20109;-85
2022/12/22 04:08:04;;;;;;;13.27;6.93;;;;;;;-148.88;100.00;75371.00;5015541;28;20084;-86
2022/12/22 04:13:19;;;;;;;11.57;6.35;;;;;;;-148.88;100.00;75360.84;4997389;28;20484;-87
2022/12/22 04:15:45;;;;;;;11.85;7.07;;;;;;;-148.88;100.00;75358.81;5014999;28;20037;-86
2022/12/22 04:18:11;;;;;;;11.68;6.53;;;;;;;-148.88;100.00;75360.84;4999275;28;20084;-86
2022/12/22 04:20:36;;;;;;;11.98;7.32;;;;;;;-148.88;100.00;75366.94;5015297;28;20025;-85
2022/12/22 04:23:03;;;;;;;10.98;6.75;;;;;;;-148.88;100.00;75366.94;5015455;28;20385;-85
2022/12/22 04:25:28;;;;;;;12.20;6.90;;;;;;;-148.88;100.00;75358.81;5016373;28;20029;-86
2022/12/22 04:27:54;;;;;;;11.73;6.90;;;;;;;-148.88;100.00;75366.94;5016489;28;20026;-86
2022/12/22 04:30:19;;;;;;;12.63;7.32;;;;;;;-148.88;100.00;75362.88;5018258;28;20026;-85
2022/12/22 04:32:45;;;;;;;12.48;7.20;;;;;;;-148.88;100.00;75360.84;5015464;28;20017;-86
2022/12/22 04:35:10;;;;;;;11.05;6.82;;;;;;;-148.88;100.00;75362.88;5015551;28;20116;-87
2022/12/22 04:37:36;;;;;;;12.25;6.50;;;;;;;-148.88;100.00;75366.94;5017027;28;20113;-87
2022/12/22 04:40:02;;;;;;;11.32;6.68;;;;;;;-148.88;100.00;75362.88;5017538;28;20032;-88
2022/12/22 04:42:27;;;;;;;12.00;7.75;;;;;;;-148.88;100.00;75358.81;5017366;28;20022;-87
2022/12/22 04:44:52;;;;;;;10.68;6.75;;;;;;;-148.88;100.00;75362.88;5016571;28;20064;-86
2022/12/22 04:47:18;;;;;;;11.00;6.32;;;;;;;-148.88;100.00;75362.88;5015265;28;20030;-88
2022/12/22 04:49:43;;;;;;;12.13;6.70;;;;;;;-148.88;100.00;75366.94;5015170;28;20044;-87
2022/12/22 04:52:08;;;;;;;11.25;7.07;;;;;;;-148.88;100.00;75360.84;5014951;28;20018;-87
2022/12/22 04:54:34;;;;;;;10.68;6.88;;;;;;;-148.88;100.00;75360.84;5015694;28;20092;-87
2022/12/22 04:56:59;;;;;;;13.50;7.30;;;;;;;-148.88;100.00;75354.75;5015334;28;20021;-87
2022/12/22 04:59:25;;;;;;;11.77;7.80;;;;;;;-148.88;100.00;75358.81;5016518;28;20025;-88
2022/12/22 05:01:50;;;;;;;11.40;7.07;;;;;;;-148.88;100.00;75350.69;5017630;28;20101;-88
2022/12/22 05:04:15;;;;;;;13.10;7.32;;;;;;;-148.88;100.00;75350.69;5017695;28;20037;-88
2022/12/22 05:06:41;;;;;;;11.70;8.02;;;;;;;-148.88;100.00;75350.69;5015377;28;20049;-87
2022/12/22 05:09:06;;;;;;;11.13;6.97;;;;;;;-148.88;100.00;75344.59;5015973;28;20030;-89
2022/12/22 05:11:31;;;;;;;14.13;7.50;;;;;;;-148.88;100.00;75336.47;5017323;28;20025;-88
2022/12/22 05:13:57;;;;;;;12.73;7.45;;;;;;;-148.88;100.00;75334.44;5016047;28;20049;-88
2022/12/22 05:16:22;;;;;;;15.35;7.15;;;;;;;-148.88;100.00;75334.44;5017094;28;20030;-88
2022/12/22 05:18:47;;;;;;;10.52;7.00;;;;;;;-148.88;100.00;75334.44;5015376;28;20030;-88
2022/12/22 05:21:15;;;;;;;12.00;7.40;;;;;;;-148.88;100.00;75342.56;5015987;28;20056;-88
2022/12/22 05:23:42;;;;;;;12.02;7.10;;;;;;;-148.88;100.00;75338.50;5014590;28;20033;-89
2022/12/22 05:26:09;;;;;;;14.57;7.28;;;;;;;-148.88;100.00;75344.59;5015336;28;20025;-88
2022/12/22 05:28:34;;;;;;;17.10;7.60;;;;;;;-148.88;100.00;75342.56;5014012;28;20480;-88
2022/12/22 05:31:10;;;;;;;13.65;7.32;;;;;;;-148.88;100.00;75338.50;5015393;28;20033;-88
2022/12/22 05:33:35;;;;;;;10.13;6.53;;;;;;;-148.88;100.00;75344.59;5015638;28;20560;-89
2022/12/22 05:36:01;;;;;;;13.85;7.72;;;;;;;-148.88;100.00;75342.56;5014029;28;20117;-89
2022/12/22 05:38:27;;;;;;;12.45;8.18;;;;;;;-148.88;100.00;75346.63;5015259;28;20080;-89
2022/12/22 05:40:53;;;;;;;10.13;7.35;;;;;;;-148.88;100.00;75342.56;5015176;28;20444;-87
2022/12/22 05:43:18;;;;;;;12.55;7.15;;;;;;;-148.88;100.00;75348.66;5012762;28;20022;-89
2022/12/22 05:45:44;;;;;;;11.00;7.05;;;;;;;-148.88;100.00;75348.66;5014282;28;20116;-88
2022/12/22 05:48:10;;;;;;;13.23;7.82;;;;;;;-148.88;100.00;75348.66;5013271;28;20081;-88
2022/12/22 05:50:35;;;;;;;12.48;7.25;;;;;;;-148.88;100.00;75346.63;5012756;28;20361;-89
2022/12/22 05:53:01;;;;;;;15.27;7.88;;;;;;;-148.88;100.00;75350.69;5013610;28;20026;-86
2022/12/22 05:55:26;;;;;;;13.45;7.22;;;;;;;-148.88;100.00;75344.59;5012529;28;20109;-88
2022/12/22 05:57:51;;;;;;;14.63;8.23;;;;;;;-148.88;100.00;75346.63;5014220;28;20026;-88
2022/12/22 06:00:17;;;;;;;16.42;8.15;;;;;;;-148.88;100.00;75348.66;5013790;28;20350;-88
2022/12/22 06:02:43;;;;;;;20.05;9.32;;;;;;;-148.88;100.00;75346.63;5013492;28;20049;-87
2022/12/22 06:05:10;;;;;;;42.53;10.15;;;;;;;-148.88;100.00;75346.63;5013960;28;20144;-88
2022/12/22 06:07:36;;;;;;;16.70;8.93;;;;;;;-148.88;100.00;75338.50;5014397;28;20026;-88
2022/12/22 06:10:01;;;;;;;23.27;11.05;;;;;;;-148.88;100.00;75338.50;5014795;28;20026;-88
2022/12/22 06:12:27;;;;;;;35.55;9.85;;;;;;;-148.88;100.00;75338.50;5013143;28;20409;-88
2022/12/22 06:14:52;;;;;;;33.08;10.30;;;;;;;-148.88;100.00;75342.56;5013750;28;20056;-88
2022/12/22 06:17:18;;;;;;;18.90;8.80;;;;;;;-148.88;100.00;75338.50;5014396;28;20036;-88
2022/12/22 06:19:43;;;;;;;24.92;9.18;;;;;;;-148.88;100.00;75346.63;5013950;28;20068;-90
2022/12/22 06:22:08;;;;;;;26.05;9.93;;;;;;;-148.88;100.00;75342.56;5012098;28;20079;-90
2022/12/22 06:24:34;;;;;;;31.20;10.45;;;;;;;-148.88;100.00;75344.59;5012186;28;20026;-90
2022/12/22 06:26:59;;;;;;;25.77;9.82;;;;;;;-148.88;100.00;75338.50;5011765;28;20511;-90
2022/12/22 06:29:25;;;;;;;26.55;10.80;;;;;;;-148.88;100.00;75338.50;5011901;28;20034;-90
2022/12/22 06:31:50;;;;;;;24.45;10.25;;;;;;;-148.88;100.00;75338.50;5011317;28;20022;-90
2022/12/22 06:34:24;;;;;;;25.70;11.27;;;;;;;-148.88;100.00;75342.56;5015422;28;20149;-90
2022/12/22 06:36:50;;;;;;;24.33;10.25;;;;;;;-148.88;100.00;75346.63;5015829;28;20026;-89
2022/12/22 06:39:16;;;;;;;21.45;10.35;;;;;;;-148.88;100.00;75350.69;5015318;28;20029;-89
2022/12/22 06:44:26;;;;;;;23.98;10.55;;;;;;;-148.88;100.00;75354.75;5017531;28;20037;-90
2022/12/22 06:46:51;;;;;;;22.42;9.50;;;;;;;-148.88;100.00;75356.78;5015979;28;20033;-90
2022/12/22 06:49:17;;;;;;;20.85;10.23;;;;;;;-148.88;100.00;75350.69;5016166;28;20149;-90
2022/12/22 06:51:42;;;;;;;22.40;10.40;;;;;;;-148.88;100.00;75354.75;5016959;28;20401;-90
2022/12/22 06:54:07;;;;;;;32.40;11.95;;;;;;;-148.88;100.00;75362.88;5015571;28;20393;-89
2022/12/22 06:56:33;;;;;;;26.40;11.00;;;;;;;-148.88;100.00;75368.97;5016880;28;20029;-90
2022/12/22 06:59:00;;;;;;;22.77;10.65;;;;;;;-148.88;100.00;75362.88;5015246;28;20476;-90
2022/12/22 07:01:26;;;;;;;19.20;10.35;;;;;;;-148.88;100.00;75362.88;5016624;28;20013;-88
2022/12/22 07:03:52;;;;;;;22.50;11.38;;;;;;;-148.88;100.00;75368.97;5016614;28;20036;-89
2022/12/22 07:06:17;;;;;;;20.25;10.30;;;;;;;-148.88;100.00;75371.00;5015634;28;20125;-88
2022/12/22 07:08:46;;;;;;;23.23;10.38;;;;;;;-148.88;100.00;75381.16;5016656;28;20084;-88
2022/12/22 07:11:13;;;;;;;30.25;10.95;;;;;;;-148.88;100.00;75377.09;5014991;28;20502;-88
2022/12/22 07:13:38;;;;;;;24.98;11.20;;;;;;;-148.88;100.00;75377.09;5014411;28;20030;-89
2022/12/22 07:16:06;;;;;;;26.58;11.10;;;;;;;-148.88;100.00;75387.25;5015602;28;20041;-89
2022/12/22 07:18:34;;;;;;;22.73;10.57;;;;;;;-148.88;100.00;75389.28;5015596;28;20029;-88
2022/12/22 07:21:04;;;;;;;22.92;11.32;;;;;;;-148.88;100.00;75387.25;5015628;28;20026;-88
2022/12/22 07:23:45;;;;;;;20.25;9.55;;;;;;;-148.88;100.00;75383.19;5014983;28;20037;-87
2022/12/22 07:26:19;;;;;;;22.52;11.00;;;;;;;-148.88;100.00;75385.22;5013602;28;20022;-88
2022/12/22 07:28:50;;;;;;;22.02;10.55;;;;;;;-148.88;100.00;75383.19;5014164;28;20067;-88
2022/12/22 07:31:16;;;;;;;22.50;10.23;;;;;;;-148.88;100.00;75395.38;5015287;28;20053;-85
2022/12/22 07:33:42;;;;;;;33.58;12.25;;;;;;;-148.88;100.00;75395.38;5015284;28;20065;-84
2022/12/22 07:36:11;;;;;;;20.40;9.75;;;;;;;-148.88;100.00;75395.38;5014290;28;20218;-84
2022/12/22 07:38:39;;;;;;;24.17;10.18;;;;;;;-148.88;100.00;75399.44;5014127;28;20399;-86
2022/12/22 07:42:43;;;;;;;180.63;19.70;;;;;;;-148.88;100.00;75405.53;5015331;28;20026;-87
2022/12/22 07:43:53;;;;;;;209.23;18.25;;;;;;;-148.88;100.00;75411.63;5015016;28;20026;-86
2022/12/22 07:46:19;;;;;;;211.73;18.42;;;;;;;-148.88;100.00;75429.91;5014445;28;20063;-86
2022/12/22 07:51:32;;;;;;;159.52;17.83;;;;;;;-148.88;100.00;75446.16;5016097;28;20148;-86
2022/12/22 07:53:57;;;;;;;152.30;12.80;;;;;;;-148.88;100.00;75452.25;5015185;28;20034;-87
2022/12/22 07:56:58;;;;;;;158.57;14.90;;;;;;;-148.88;100.00;75458.34;5013730;28;20160;-87
2022/12/22 07:59:29;;;;;;;78.10;10.00;;;;;;;-148.88;100.00;75454.28;4997119;28;20068;-86
2022/12/22 08:01:54;;;;;;;17.85;7.75;;;;;;;-148.88;100.00;75448.19;5015634;28;20041;-85
2022/12/22 08:04:21;;;;;;;20.45;8.27;;;;;;;-148.88;100.00;75444.13;5015738;28;20022;-86
2022/12/22 08:06:46;;;;;;;24.75;9.02;;;;;;;-148.88;100.00;75444.13;5015637;28;20034;-86
2022/12/22 08:09:14;;;;;;;81.97;13.02;;;;;;;-148.88;100.00;75452.25;5013876;28;20132;-85
2022/12/22 08:11:39;;;;;;;44.03;16.52;;;;;;;-148.88;100.00;75454.28;5015262;28;20125;-86
2022/12/22 08:14:05;;;;;;;108.30;18.42;;;;;;;-148.88;100.00;75452.25;5014956;28;20071;-86
2022/12/22 08:16:41;;;;;;;112.53;14.73;;;;;;;-148.88;100.00;75460.38;5015025;28;20022;-86
2022/12/22 08:19:06;;;;;;;218.85;18.35;;;;;;;-148.88;100.00;75466.47;5014881;28;20033;-86
2022/12/22 08:21:34;;;;;;;125.30;11.48;;;;;;;-148.88;100.00;75462.41;5014971;28;20029;-86
2022/12/22 08:23:59;;;;;;;270.27;22.27;;;;;;;-148.88;100.00;75462.41;5014835;28;20022;-86
2022/12/22 08:26:42;;;;;;;144.40;13.15;;;;;;;-148.88;100.00;75468.50;5013506;28;20044;-86
2022/12/22 08:29:38;;;;;;;214.15;21.05;;;;;;;-148.88;100.00;75476.63;5012749;28;20521;-87
2022/12/22 08:32:04;;;;;;;270.23;23.10;;;;;;;-148.88;100.00;75472.56;4998706;28;20026;-86
2022/12/22 08:34:58;;;;;;;319.45;28.67;;;;;;;-148.88;100.00;75472.56;5015127;28;20033;-87
2022/12/22 08:40:39;;;;;;;79.78;10.70;;;;;;;-148.88;100.00;75464.44;4990929;28;20004;-87
2022/12/22 08:46:36;;;;;;;119.07;13.85;;;;;;;-148.88;100.00;75456.31;5013978;28;20052;-87
2022/12/22 08:49:01;;;;;;;28.85;8.70;;;;;;;-148.88;100.00;75450.22;5013099;28;20040;-88
2022/12/22 08:51:32;;;;;;;90.00;12.93;;;;;;;-148.88;100.00;75456.31;5013114;28;20029;-89
2022/12/22 08:53:58;;;;;;;43.63;10.77;;;;;;;-148.88;100.00;75458.34;5013099;28;20056;-88
2022/12/22 08:56:23;;;;;;;96.47;13.75;;;;;;;-148.88;100.00;75464.44;5012765;28;20025;-88
2022/12/22 08:58:48;;;;;;;128.45;16.40;;;;;;;-148.88;100.00;75468.50;5013659;28;20058;-87
2022/12/22 09:01:18;;;;;;;166.23;19.48;;;;;;;-148.88;100.00;75464.44;5012473;28;20032;-87
2022/12/22 09:03:52;;;;;;;309.70;29.23;;;;;;;-148.88;100.00;75460.38;5013806;28;20025;-87
2022/12/22 09:06:22;;;;;;;141.90;16.67;;;;;;;-148.88;100.00;75460.38;5012289;28;20026;-87
2022/12/22 09:08:53;;;;;;;26.45;10.23;;;;;;;-148.88;100.00;75456.31;5013764;28;20102;-88
2022/12/22 09:11:18;;;;;;;102.28;14.15;;;;;;;-148.88;100.00;75452.25;5013926;28;20021;-86
2022/12/22 09:13:43;;;;;;;70.25;14.30;;;;;;;-148.88;100.00;75452.25;5013646;28;20065;-86
2022/12/22 09:16:09;;;;;;;90.18;17.25;;;;;;;-148.88;100.00;75450.22;5017171;28;20105;-88
2022/12/22 09:18:34;;;;;;;42.67;12.73;;;;;;;-148.88;100.00;75440.06;5012681;28;20117;-87
2022/12/22 09:21:02;;;;;;;65.90;13.77;;;;;;;-148.88;100.00;75448.19;5016444;28;20439;-88
2022/12/22 09:24:03;;;;;;;34.38;12.13;;;;;;;-148.88;100.00;75456.31;5014059;28;20088;-88
2022/12/22 09:26:34;;;;;;;87.50;15.60;;;;;;;-148.88;100.00;75456.31;5012805;28;20041;-88
2022/12/22 09:29:09;;;;;;;42.25;12.43;;;;;;;-148.88;100.00;75452.25;5014389;28;20030;-88
2022/12/22 09:32:33;;;;;;;43.17;13.65;;;;;;;-148.88;100.00;75452.25;5013285;28;20506;-88
2022/12/22 09:35:42;;;;;;;87.30;16.10;;;;;;;-148.88;100.00;75448.19;4981130;28;20129;-88
2022/12/22 09:38:19;;;;;;;36.67;11.30;;;;;;;-148.88;100.00;75440.06;5012673;28;20029;-87
2022/12/22 09:40:45;;;;;;;50.67;13.05;;;;;;;-148.88;100.00;75429.91;5013108;28;20022;-88
2022/12/22 09:43:26;;;;;;;39.17;11.98;;;;;;;-148.88;100.00;75425.84;5012939;28;20116;-87
2022/12/22 09:48:18;;;;;;;51.63;13.57;;;;;;;-148.88;100.00;75415.69;4972797;28;20533;-74
2022/12/22 09:50:44;;;;;;;108.03;18.20;;;;;;;-148.88;100.00;75411.63;4989214;28;20023;-74
2022/12/22 09:53:22;;;;;;;42.92;13.50;;;;;;;-148.88;100.00;75405.53;4974410;28;20031;-74
2022/12/22 09:55:49;;;;;;;49.03;13.35;;;;;;;-148.88;100.00;75411.63;4975635;28;20035;-77
2022/12/22 09:58:22;;;;;;;40.97;12.32;;;;;;;-148.88;100.00;75409.59;4972877;28;20023;-74
2022/12/22 10:00:55;;;;;;;46.50;13.85;;;;;;;-148.88;100.00;75415.69;4974065;28;20105;-75
2022/12/22 10:03:32;;;;;;;40.13;10.80;;;;;;;-148.88;100.00;75409.59;4974363;28;20022;-74
2022/12/22 10:06:09;;;;;;;54.22;12.57;;;;;;;-148.88;100.00;75403.50;4974059;28;20400;-74
2022/12/22 10:08:36;;;;;;;50.13;13.02;;;;;;;-148.88;100.00;75397.41;4975643;28;20033;-74
2022/12/22 10:11:02;;;;;;;47.40;13.35;;;;;;;-148.88;100.00;75399.44;4978136;28;20197;-75
2022/12/22 10:13:27;;;;;;;59.25;16.27;;;;;;;-148.88;100.00;75395.38;4977976;28;20126;-74
2022/12/22 10:15:54;;;;;;;53.08;15.95;;;;;;;-148.88;100.00;75387.25;4977936;28;20199;-74
2022/12/22 10:18:22;;;;;;;59.03;15.05;;;;;;;-148.88;100.00;75379.13;4978023;28;20027;-74
2022/12/22 10:21:08;;;;;;;61.33;16.33;;;;;;;-148.88;100.00;75383.19;4977994;28;20051;-75
2022/12/22 10:23:37;;;;;;;52.15;13.93;;;;;;;-148.88;100.00;75391.31;4977827;28;20023;-74
2022/12/22 10:26:12;;;;;;;49.45;14.77;;;;;;;-148.88;100.00;75389.28;4977839;28;20499;-75
2022/12/22 10:28:45;;;;;;;46.38;14.25;;;;;;;-148.88;100.00;75387.25;4978085;28;20034;-74
2022/12/22 10:31:26;;;;;;;40.33;12.98;;;;;;;-148.88;100.00;75391.31;4977821;28;20034;-74
2022/12/22 10:33:54;;;;;;;36.13;12.95;;;;;;;-148.88;100.00;75391.31;4978642;28;20030;-74
2022/12/22 10:36:41;;;;;;;44.63;13.88;;;;;;;-148.88;100.00;75387.25;4976463;28;20489;-75
2022/12/22 10:39:10;;;;;;;38.92;13.27;;;;;;;-148.88;100.00;75391.31;4977421;28;20039;-75
2022/12/22 10:41:44;;;;;;;37.78;12.88;;;;;;;-148.88;100.00;75393.34;4977496;28;20018;-75
2022/12/22 10:44:15;;;;;;;36.15;12.23;;;;;;;-148.88;100.00;75401.47;4977972;28;20030;-75
2022/12/22 10:46:47;;;;;;;37.55;11.98;;;;;;;-148.88;100.00;75403.50;4977684;28;20390;-75
2022/12/22 10:49:39;;;;;;;34.55;11.63;;;;;;;-148.88;100.00;75415.69;4977643;28;20029;-75
2022/12/22 10:52:27;;;;;;;39.78;12.20;;;;;;;-148.88;100.00;75393.34;4977450;28;20031;-74
2022/12/22 10:55:19;;;;;;;40.22;13.45;;;;;;;-148.88;100.00;75403.50;4977256;28;20118;-75
2022/12/22 10:57:45;;;;;;;49.20;14.88;;;;;;;-148.88;100.00;75405.53;4977201;28;20049;-76
2022/12/22 11:00:30;;;;;;;39.92;13.70;;;;;;;-148.88;100.00;75409.59;4977058;28;20034;-75
2022/12/22 11:02:58;;;;;;;40.78;13.85;;;;;;;-148.88;100.00;75415.69;4977328;28;20116;-74
2022/12/22 11:05:24;;;;;;;39.90;14.00;;;;;;;-148.88;100.00;75415.69;4976993;28;20027;-76
2022/12/22 11:07:49;;;;;;;38.83;13.85;;;;;;;-148.88;100.00;75415.69;4977331;28;20397;-74
2022/12/22 11:10:30;;;;;;;43.10;13.43;;;;;;;-148.88;100.00;75421.78;4975667;28;20045;-75
2022/12/22 11:13:02;;;;;;;29.70;11.73;;;;;;;-148.88;100.00;75423.81;4977147;28;20026;-74
2022/12/22 11:15:42;;;;;;;34.42;13.10;;;;;;;-148.88;100.00;75427.88;4975464;28;20082;-74
2022/12/22 11:18:35;;;;;;;34.80;12.15;;;;;;;-148.88;100.00;75438.03;4976878;28;20026;-74
2022/12/22 11:21:26;;;;;;;32.55;11.95;;;;;;;-148.88;100.00;75425.84;4976308;28;20492;-74
2022/12/22 11:24:17;;;;;;;36.25;11.30;;;;;;;-148.88;100.00;75423.81;4976837;28;20030;-76
2022/12/22 11:26:48;;;;;;;35.35;13.07;;;;;;;-148.88;100.00;75423.81;4976964;28;20108;-76
2022/12/22 11:29:32;;;;;;;31.70;13.25;;;;;;;-148.88;100.00;75417.72;4977595;28;20031;-78
2022/12/22 11:31:57;;;;;;;;;;;;;;;-148.88;100.00;75425.84;4978487;28;20023;-75
2022/12/22 11:34:41;;;;;;;31.13;11.38;;;;;;;-148.88;100.00;75436.00;4975942;28;19917;-78
2022/12/22 11:37:15;;;;;;;34.17;12.07;;;;;;;-148.88;100.00;75423.81;4976644;28;20035;-77
2022/12/22 11:39:55;;;;;;;31.05;11.30;;;;;;;-148.88;100.00;75419.75;4979609;28;20089;-78
2022/12/22 11:42:32;;;;;;;34.13;14.00;;;;;;;-148.88;100.00;75413.66;4977760;28;20053;-78
2022/12/22 11:45:15;;;;;;;35.55;13.70;;;;;;;-148.88;100.00;75405.53;4976523;28;20030;-76
2022/12/22 11:47:59;;;;;;;31.85;12.18;;;;;;;-148.88;100.00;75389.28;4976402;28;20069;-76
2022/12/22 11:50:28;;;;;;;;;;;;;;;-148.88;100.00;75377.09;4977307;28;20027;-76
2022/12/22 11:53:15;;;;;;;30.75;11.05;;;;;;;-148.88;100.00;75350.69;4976664;28;19918;-76
2022/12/22 11:56:02;;;;;;;31.60;12.65;;;;;;;-148.88;100.00;75354.75;4974721;28;20117;-76
2022/12/22 11:59:12;;;;;;;29.17;12.63;;;;;;;-148.88;100.00;75346.63;4976073;28;20054;-75
2022/12/22 12:02:07;;;;;;;22.10;9.90;;;;;;;-148.88;100.00;75346.63;4935910;29;20035;-75
2022/12/22 12:05:18;;;;;;;23.13;10.27;;;;;;;-148.88;100.00;75338.50;4976192;28;20058;-75
2022/12/22 12:07:49;;;;;;;19.85;9.15;;;;;;;-148.88;100.00;75356.78;4976094;28;20106;-76
2022/12/22 12:10:32;;;;;;;24.48;10.48;;;;;;;-148.88;100.00;75350.69;4976558;28;20373;-76
2022/12/22 12:13:16;;;;;;;24.02;10.02;;;;;;;-148.88;100.00;75354.75;4976584;28;20056;-77
2022/12/22 12:16:29;;;;;;;18.50;8.52;;;;;;;-148.88;100.00;75383.19;4974592;28;20109;-75
2022/12/22 12:19:27;;;;;;;19.65;8.23;;;;;;;-148.88;100.00;75375.06;4958249;28;20050;-76
2022/12/22 12:21:55;;;;;;;20.42;8.68;;;;;;;-148.88;100.00;75364.91;4977323;28;20479;-76
2022/12/22 12:24:36;;;;;;;20.42;7.97;;;;;;;-148.88;100.00;75354.75;4975813;28;20069;-76
2022/12/22 12:27:14;;;;;;;17.33;8.20;;;;;;;-148.88;100.00;75368.97;4976027;28;20026;-75
2022/12/22 12:29:50;;;;;;;15.82;7.32;;;;;;;-148.88;100.00;75381.16;4975599;28;20058;-75
2022/12/22 12:32:46;;;;;;;13.73;7.07;;;;;;;-148.88;100.00;75397.41;4973982;28;20031;-75
2022/12/22 12:35:41;;;;;;;16.17;7.78;;;;;;;-148.88;100.00;75387.25;4975851;28;20367;-74
2022/12/22 12:38:15;;;;;;;16.00;7.40;;;;;;;-148.88;100.00;75379.13;4959047;28;20043;-75
2022/12/22 12:40:53;;;;;;;16.42;8.52;;;;;;;-148.88;100.00;75352.72;4974055;28;20030;-75
2022/12/22 12:43:19;;;;;;;18.65;8.77;;;;;;;-148.88;100.00;75338.50;4975519;28;20065;-75
2022/12/22 12:45:47;;;;;;;16.17;7.20;;;;;;;-148.88;100.00;75356.78;4975179;28;20030;-75
2022/12/22 12:48:19;;;;;;;15.70;7.57;;;;;;;-148.88;100.00;75368.97;4975029;28;20035;-74
2022/12/22 12:50:44;;;;;;;14.88;7.45;;;;;;;-148.88;100.00;75358.81;4975061;28;20039;-75
2022/12/22 12:53:10;;;;;;;16.52;7.97;;;;;;;-148.88;100.00;75375.06;4974994;28;20538;-75
2022/12/22 12:55:51;;;;;;;14.82;7.68;;;;;;;-148.88;100.00;75366.94;4974888;28;20041;-74
2022/12/22 12:58:37;;;;;;;12.63;6.55;;;;;;;-148.88;100.00;75391.31;4975262;28;20027;-75
2022/12/22 13:01:04;;;;;;;22.00;7.13;;;;;;;-148.88;100.00;75411.63;4974885;28;20073;-75
2022/12/22 13:03:29;;;;;;;14.40;7.10;;;;;;;-148.88;100.00;75421.78;4974824;28;20030;-75
2022/12/22 13:05:57;;;;;;;14.57;6.93;;;;;;;-148.88;100.00;75427.88;4974845;28;20073;-75
2022/12/22 13:08:25;;;;;;;15.20;6.65;;;;;;;-148.88;100.00;75411.63;4974861;28;20743;-76
2022/12/22 13:10:53;;;;;;;15.98;6.75;;;;;;;-148.88;100.00;75415.69;4974830;28;20081;-75
2022/12/22 13:13:21;;;;;;;14.98;7.47;;;;;;;-148.88;100.00;75403.50;4974693;28;20482;-77
2022/12/22 13:15:59;;;;;;;12.20;7.28;;;;;;;-148.88;100.00;75431.94;4974707;28;20106;-77
2022/12/22 13:18:24;;;;;;;13.13;7.05;;;;;;;-148.88;100.00;75429.91;4973384;28;20564;-76
2022/12/22 13:21:04;;;;;;;16.05;6.88;;;;;;;-148.88;100.00;75452.25;4975438;28;20114;-76
2022/12/22 13:23:35;;;;;;;15.32;10.13;;;;;;;-148.88;100.00;75448.19;4974541;28;20027;-76
2022/12/22 13:26:09;;;;;;;12.73;6.68;;;;;;;-148.88;100.00;75470.53;4973257;28;20389;-77
2022/12/22 13:28:36;;;;;;;16.30;6.65;;;;;;;-148.88;100.00;75474.59;4973102;28;20489;-76
2022/12/22 13:31:17;;;;;;;13.68;6.95;;;;;;;-148.88;100.00;75482.72;4974394;28;20073;-76
2022/12/22 13:33:44;;;;;;;12.60;7.07;;;;;;;-148.88;100.00;75488.81;4974972;28;20494;-77
2022/12/22 13:36:18;;;;;;;13.52;7.15;;;;;;;-148.88;100.00;75476.63;4973073;28;20054;-76
2022/12/22 13:38:43;;;;;;;16.95;7.03;;;;;;;-148.88;100.00;75474.59;4974885;28;20027;-76
2022/12/22 13:41:15;;;;;;;15.38;6.78;;;;;;;-148.88;100.00;75494.91;4974314;28;20077;-76
2022/12/22 13:43:42;;;;;;;16.55;7.18;;;;;;;-148.88;100.00;75482.72;4973703;28;20491;-76
2022/12/22 13:46:08;;;;;;;15.18;6.65;;;;;;;-148.88;100.00;75486.78;4972746;28;20033;-76
2022/12/22 13:48:42;;;;;;;16.10;7.85;;;;;;;-148.88;100.00;75490.84;4974545;28;20026;-75
2022/12/22 13:51:17;;;;;;;18.42;7.63;;;;;;;-148.88;100.00;75513.19;4974302;28;20037;-76
2022/12/22 13:53:47;;;;;;;15.13;6.85;;;;;;;-148.88;100.00;75521.31;4974390;28;20030;-76
2022/12/22 13:56:16;;;;;;;13.93;7.10;;;;;;;-148.88;100.00;75521.31;4974132;28;20027;-76
2022/12/22 13:58:44;;;;;;;17.52;7.07;;;;;;;-148.88;100.00;75537.56;4972796;28;20085;-76
2022/12/22 14:01:09;;;;;;;14.52;6.45;;;;;;;-148.88;100.00;75545.69;4972814;28;20397;-76
2022/12/22 14:03:35;;;;;;;18.23;6.67;;;;;;;-148.88;100.00;75543.66;4974103;28;20019;-76
2022/12/22 14:06:01;;;;;;;16.67;7.47;;;;;;;-148.88;100.00;75547.72;4973956;28;20256;-76
2022/12/22 14:08:26;;;;;;;15.70;7.00;;;;;;;-148.88;100.00;75549.75;4972748;28;20018;-76
2022/12/22 14:10:53;;;;;;;15.05;7.20;;;;;;;-148.88;100.00;75566.00;4974325;28;20023;-76
2022/12/22 14:13:24;;;;;;;14.30;6.97;;;;;;;-148.88;100.00;75570.03;4974184;28;20033;-75
2022/12/22 14:15:59;;;;;;;19.42;7.70;;;;;;;-148.88;100.00;75557.88;4974024;28;20023;-76
2022/12/22 14:18:25;;;;;;;15.60;7.63;;;;;;;-148.88;100.00;75574.13;4974239;28;20023;-76
2022/12/22 14:20:51;;;;;;;17.13;8.45;;;;;;;-148.88;100.00;75582.22;4972592;28;20114;-76
2022/12/22 14:23:25;;;;;;;14.50;7.53;;;;;;;-148.88;100.00;75592.38;4972671;28;20019;-76
2022/12/22 14:25:54;;;;;;;18.35;7.80;;;;;;;-148.88;100.00;75606.59;4973959;28;20042;-74
2022/12/22 14:28:33;;;;;;;16.40;6.68;;;;;;;-148.88;100.00;75602.53;4973925;28;20034;-74
2022/12/22 14:31:01;;;;;;;13.52;6.43;;;;;;;-148.88;100.00;75598.47;4974177;28;20038;-74
2022/12/22 14:33:31;;;;;;;15.40;6.65;;;;;;;-148.88;100.00;75608.63;4972699;28;20035;-77
2022/12/22 14:36:35;;;;;;;14.90;6.35;;;;;;;-148.88;100.00;75610.66;4973977;28;20101;-74
2022/12/22 14:39:07;;;;;;;;;;;;;;;-148.88;100.00;75614.72;4952224;28;20118;-74
2022/12/22 14:41:50;;;;;;;14.43;6.20;;;;;;;-148.88;100.00;75620.81;4974215;28;19961;-74
2022/12/22 14:44:21;;;;;;;15.97;6.50;;;;;;;-148.88;100.00;75639.09;4972709;28;20054;-74
2022/12/22 14:47:13;;;;;;;15.55;6.10;;;;;;;-148.88;100.00;75630.97;4972499;28;20041;-74
2022/12/22 14:49:52;;;;;;;18.90;6.80;;;;;;;-148.88;100.00;75633.00;4974116;28;20098;-75
2022/12/22 14:52:38;;;;;;;16.00;6.43;;;;;;;-148.88;100.00;75635.03;4974296;28;20051;-74
2022/12/22 14:55:06;;;;;;;16.70;7.38;;;;;;;-148.88;100.00;75635.03;4976149;28;20378;-75
2022/12/22 14:57:36;;;;;;;18.77;7.13;;;;;;;-148.88;100.00;75663.47;4977672;28;20031;-74
2022/12/22 15:00:08;;;;;;;19.23;7.47;;;;;;;-148.88;100.00;75659.41;4977609;28;20018;-74
2022/12/22 15:02:37;;;;;;;15.82;7.00;;;;;;;-148.88;100.00;75675.66;4977872;28;20113;-74
2022/12/22 15:05:07;;;;;;;15.40;7.32;;;;;;;-148.88;100.00;75687.84;4977466;28;20034;-74